Warning: Javascript must be enabled to use all the features on this page!


Page Loading - Please Wait...

* We've detected you're using a mobile device. Find our Next Generation Station Page here.
Click to hideNews Bulletins

Peak Streamflow for the Nation

USGS 05540060 KRESS CREEK AT WEST CHICAGO, IL

Dupage County, Illinois
Hydrologic Unit Code 07120004
Latitude  41°51'23", Longitude  88°12'14" NAD83
Drainage area 18.1  square miles
Gage datum 700.00 feet above NGVD29
Output formats
Table
Graph
Tab-separated file
peakfq (watstore) format
Reselect output format
Water
Year
Date Gage
Height
(feet)
Stream-
flow
(cfs)
1961 1961-09-25 6.38 192
1962 1962-03-19 6.30 175
1963 1963-04-30 6.06 131
1964 1964-07-18 7.90 637
1965 1965-02-07 6.22 159
1966 1966-05-12 7.03 356
1967 1967-06-10 7.27 426
1968 1968-08-17 5.84 203
1969 1969-01-23 5.47 150
1970 1970-06-02 5.82 200
1971 1971-02-19 5.92 215
1972 1972-08-26 6.29 278
1973 1972-12-30 6.34 288
1974 1974-05-16 6.31 282
1975 1975-04-18 6.71 361
1976 1976-03-05 6.84 389
1977 1977-08-09 5.78 194
1978 1978-09-18 6.92 407
1979 1979-03-04 6.97 418
1980 1980-09-17 6.23 267
1986 1985-11-19 6.99 425
1987 1987-08-14 7.37 573
1988 1988-04-06 5.69 181
1989 1989-09-02 5.68 180
1990 1990-05-10 6.42 326
1991 1991-05-25 6.63 374
1992 1992-04-15 5.31 134
1993 1993-06-08 6.44 349
1994 1994-02-20 6.61 369
1995 1995-04-27 6.24 286
1996 1996-07-18 9.24 1,980
1997 1997-02-21 7.66 579
1998 1998-05-07 6.27 238
1999 1999-04-23 6.24 241C
2000 2000-04-20 6.33 225C
2001 2001-02-09 6.49 283C
2002 2001-10-13 7.28 446C
2003 2003-05-01 5.99 195C
2004 2004-06-12 5.67 160C
2005 2005-01-13 5.85 184C
2006 2006-09-22 5.58 149C
2007 2007-08-23 6.54 307C
2008 2008-09-14 9.37 2,100C
2009 2008-12-27 6.99 448C
2010 2010-07-24 7.01 517C
2011 2011-06-09 6.29 285C
2012 2011-12-14 5.25 107C
2013 2013-04-18 7.19 590C
2014 2014-08-22 6.14 247C
2015 2015-06-15 7.51 724C
2016 2016-05-12 6.96 444C
2017 2017-05-01 6.78 394C
2018 2018-02-20 6.90 384C
2019 2019-05-01 6.99 435C
2020 2020-05-15 7.67 617C
2021 2021-06-26 6.21 290C
?
  Peak Streamflow Qualification Codes.